Bergoo, WV (26298)

12:32 PM EDT on October 31, 2014 (GMT -0400)
Webster Springs | Change Station
CLOSE
Current Station
Personal Weather Station
Location: Webster Springs, WV
Elevation: 1526 ft
Nearby Weather Stations

Elev 1526 ft 38.48 °N, 80.42 °W | Updated 54 seconds ago

Overcast
Overcast
46.3 °F
Feels Like 46 °F
N
1.0
Wind Variable Wind from SSW
Gusts 1.0 mph

Today
High -- | Low -- °F
--% Chance of Precip.
Yesterday
High -- | Low -- °F
Precip. -- in
7:46 AM 6:22 PM
First Quarter, 56% visible
Pressure 29.91 in
Visibility 10.0 miles
Clouds Overcast 3900 ft
Windchill 46 °F
Dew Point 37 °F
Humidity 71%
Rainfall 0.00 in
Snow Depth Not available.
UV 1 out of 12
Pollen .10 out of 12
Air Quality Not available.
Flu Activity Not available.
METAR KW22 311615Z AUTO 00000KT 10SM OVC039 07/02 A2991 RMK AO2

More Conditions Fewer Conditions

Pressure 29.91 in
Visibility 10.0 miles
Clouds Overcast 3900 ft
Windchill 46 °F
Dew Point 37 °F
Humidity 71%
Rainfall 0.00 in
Snow Depth Not available.
UV 1 out of 12
Pollen .10 out of 12
Air Quality Not available.
Flu Activity Not available.
METAR KW22 311615Z AUTO 00000KT 10SM OVC039 07/02 A2991 RMK AO2

More Conditions Fewer Conditions

10-Day Weather Forecast

Almanac

Astronomy

Oct. 31, 2014 Rise Set
Actual Time
Civil Twilight
Nautical Twilight
Astronomical Twilight
Moon
Length of Visible Light
Length of Day
Tomorrow will be .
, % of the Moon is Illuminated

Today's Extremes

State Highs State Lows

Community

WunderPhotos

Upload Photos

1,766,656 photos uploaded!

WunderBlogs® & News

Nearby

Air Quality

  Air Quality AQ Index Pollutant
Not available.

Snow Depth

Station Depth Elevation

Earthquake Activity

City Distance Mag. Time & Date
Minimum magnitude displayed is 2.5.

Coastal Water Temperatures

Place Temperature

Nearby Weather Stations